AAL1441 KABQ-KDFW
Flight info
| Callsign | AAL1441 |
|---|---|
| Flight time | 1h 13m |
| Altitude | 37000 |
| Route | DOOKK3 TXO TURKI JOVEM6 |
| Aircraft | A319/M-VGDW/C |
Departure
| Time | 2026-05-06 20:47 |
|---|---|
| Airport | Albuquerque International Sunport (KABQ) |
Arrival
| Time | 2026-05-06 22:01 |
|---|---|
| Airport | Dallas Fort Worth International Airport (KDFW) |
| Time | Latitude | Longitude | Altitude | Speed | Heading |
|---|---|---|---|---|---|
| 2026-05-06 20:35 | 35.04693 | -106.61536 | 5475 ft | 0 kts | 11° |
| 2026-05-06 20:39 | 35.04670 | -106.61542 | 5480 ft | 4 kts | 11° |
| 2026-05-06 20:39 | 35.04642 | -106.61548 | 5481 ft | 4 kts | 10° |
| 2026-05-06 20:40 | 35.04615 | -106.61554 | 5480 ft | 0 kts | 9° |
| 2026-05-06 20:43 | 35.04620 | -106.61538 | 5480 ft | 5 kts | 75° |
| 2026-05-06 20:43 | 35.04608 | -106.61472 | 5478 ft | 13 kts | 104° |
| 2026-05-06 20:43 | 35.04589 | -106.61344 | 5479 ft | 18 kts | 94° |
| 2026-05-06 20:43 | 35.04580 | -106.61143 | 5480 ft | 29 kts | 91° |
| 2026-05-06 20:44 | 35.04578 | -106.60862 | 5483 ft | 36 kts | 90° |
| 2026-05-06 20:44 | 35.04578 | -106.60525 | 5484 ft | 43 kts | 90° |
| 2026-05-06 20:44 | 35.04574 | -106.60154 | 5489 ft | 44 kts | 90° |
| 2026-05-06 20:44 | 35.04585 | -106.59759 | 5495 ft | 48 kts | 89° |
| 2026-05-06 20:45 | 35.04582 | -106.59330 | 5498 ft | 52 kts | 90° |
| 2026-05-06 20:45 | 35.04580 | -106.58880 | 5501 ft | 54 kts | 90° |
| 2026-05-06 20:45 | 35.04577 | -106.58428 | 5505 ft | 52 kts | 90° |
| 2026-05-06 20:45 | 35.04574 | -106.58009 | 5508 ft | 49 kts | 90° |
| 2026-05-06 20:46 | 35.04570 | -106.57657 | 5511 ft | 29 kts | 95° |
| 2026-05-06 20:46 | 35.04429 | -106.57573 | 5511 ft | 14 kts | 186° |
| 2026-05-06 20:46 | 35.04405 | -106.57682 | 5509 ft | 23 kts | 268° |
| 2026-05-06 20:46 | 35.04406 | -106.58060 | 5508 ft | 68 kts | 270° |
| 2026-05-06 20:47 | 35.04416 | -106.58836 | 5504 ft | 115 kts | 270° |
| 2026-05-06 20:47 | 35.04421 | -106.60007 | 5491 ft | 159 kts | 270° |
| 2026-05-06 20:47 | 35.04433 | -106.61466 | 5786 ft | 175 kts | 270° |
| 2026-05-06 20:47 | 35.04098 | -106.62873 | 6322 ft | 179 kts | 235° |
| 2026-05-06 20:48 | 35.03070 | -106.63796 | 6867 ft | 190 kts | 212° |
| 2026-05-06 20:48 | 35.01907 | -106.64615 | 7407 ft | 198 kts | 217° |
| 2026-05-06 20:48 | 35.00753 | -106.65672 | 7663 ft | 219 kts | 222° |
| 2026-05-06 20:48 | 34.99535 | -106.66909 | 7994 ft | 239 kts | 223° |
| 2026-05-06 20:49 | 34.98202 | -106.68291 | 8368 ft | 263 kts | 223° |
| 2026-05-06 20:49 | 34.96770 | -106.69770 | 9028 ft | 275 kts | 223° |
| 2026-05-06 20:49 | 34.95296 | -106.71279 | 9835 ft | 279 kts | 223° |
| 2026-05-06 20:49 | 34.93681 | -106.72642 | 10556 ft | 290 kts | 205° |
| 2026-05-06 20:50 | 34.91668 | -106.72969 | 11116 ft | 312 kts | 176° |
| 2026-05-06 20:50 | 34.89559 | -106.71999 | 11349 ft | 343 kts | 147° |
| 2026-05-06 20:50 | 34.87824 | -106.69864 | 11648 ft | 365 kts | 128° |
| 2026-05-06 20:50 | 34.86394 | -106.67273 | 12303 ft | 371 kts | 124° |
| 2026-05-06 20:51 | 34.84980 | -106.64625 | 13011 ft | 375 kts | 124° |
| 2026-05-06 20:51 | 34.83677 | -106.61852 | 13697 ft | 381 kts | 117° |
| 2026-05-06 20:51 | 34.82625 | -106.58863 | 14299 ft | 386 kts | 111° |
| 2026-05-06 20:51 | 34.81816 | -106.55736 | 14898 ft | 391 kts | 104° |
| 2026-05-06 20:52 | 34.81197 | -106.52494 | 15510 ft | 395 kts | 103° |
| 2026-05-06 20:52 | 34.80636 | -106.49204 | 16112 ft | 399 kts | 101° |
| 2026-05-06 20:52 | 34.80156 | -106.45868 | 16711 ft | 404 kts | 99° |
| 2026-05-06 20:52 | 34.79719 | -106.42457 | 17324 ft | 408 kts | 98° |
| 2026-05-06 20:53 | 34.79304 | -106.39032 | 17923 ft | 413 kts | 98° |
| 2026-05-06 20:53 | 34.78882 | -106.35557 | 18471 ft | 417 kts | 98° |
| 2026-05-06 20:53 | 34.78448 | -106.32091 | 19007 ft | 421 kts | 99° |
| 2026-05-06 20:53 | 34.77982 | -106.28514 | 19544 ft | 425 kts | 99° |
| 2026-05-06 20:54 | 34.77512 | -106.24996 | 20065 ft | 428 kts | 100° |
| 2026-05-06 20:54 | 34.77017 | -106.21361 | 20601 ft | 432 kts | 100° |
| 2026-05-06 20:54 | 34.76519 | -106.17738 | 21140 ft | 436 kts | 100° |
| 2026-05-06 20:54 | 34.76019 | -106.14087 | 21636 ft | 440 kts | 101° |
| 2026-05-06 20:55 | 34.75661 | -106.10427 | 22099 ft | 445 kts | 93° |
| 2026-05-06 20:55 | 34.75553 | -106.06651 | 22565 ft | 448 kts | 92° |
| 2026-05-06 20:55 | 34.75442 | -106.02850 | 23034 ft | 452 kts | 93° |
| 2026-05-06 20:55 | 34.75320 | -105.99025 | 23496 ft | 455 kts | 93° |
| 2026-05-06 20:56 | 34.75194 | -105.95161 | 23869 ft | 459 kts | 94° |
| 2026-05-06 20:56 | 34.75066 | -105.91274 | 24219 ft | 463 kts | 94° |
| 2026-05-06 20:56 | 34.74940 | -105.87341 | 24562 ft | 467 kts | 94° |
| 2026-05-06 20:56 | 34.74813 | -105.83382 | 24897 ft | 471 kts | 94° |
| 2026-05-06 20:57 | 34.74684 | -105.79391 | 25228 ft | 474 kts | 94° |
| 2026-05-06 20:57 | 34.74550 | -105.75361 | 25563 ft | 478 kts | 94° |
| 2026-05-06 20:57 | 34.74413 | -105.71311 | 25897 ft | 482 kts | 95° |
| 2026-05-06 20:57 | 34.74269 | -105.67215 | 26233 ft | 486 kts | 95° |
| 2026-05-06 20:58 | 34.74124 | -105.63091 | 26566 ft | 490 kts | 95° |
| 2026-05-06 20:58 | 34.73979 | -105.58940 | 26815 ft | 495 kts | 96° |
| 2026-05-06 20:58 | 34.73835 | -105.54713 | 26949 ft | 504 kts | 96° |
| 2026-05-06 20:58 | 34.73688 | -105.50420 | 27140 ft | 511 kts | 96° |
| 2026-05-06 20:59 | 34.73539 | -105.46084 | 27395 ft | 516 kts | 97° |
| 2026-05-06 20:59 | 34.73383 | -105.41707 | 27692 ft | 521 kts | 97° |
| 2026-05-06 20:59 | 34.73224 | -105.37351 | 27944 ft | 525 kts | 97° |
| 2026-05-06 20:59 | 34.73058 | -105.32899 | 28199 ft | 529 kts | 97° |
| 2026-05-06 21:00 | 34.72889 | -105.28413 | 28477 ft | 533 kts | 97° |
| 2026-05-06 21:00 | 34.72717 | -105.23884 | 28656 ft | 540 kts | 98° |
| 2026-05-06 21:00 | 34.72546 | -105.19296 | 28858 ft | 545 kts | 98° |
| 2026-05-06 21:00 | 34.72374 | -105.14676 | 29099 ft | 549 kts | 98° |
| 2026-05-06 21:01 | 34.72202 | -105.10022 | 29356 ft | 553 kts | 98° |
| 2026-05-06 21:01 | 34.72025 | -105.05338 | 29592 ft | 557 kts | 98° |
| 2026-05-06 21:01 | 34.71841 | -105.00622 | 29847 ft | 560 kts | 99° |
| 2026-05-06 21:01 | 34.71649 | -104.95877 | 30073 ft | 564 kts | 99° |
| 2026-05-06 21:02 | 34.71451 | -104.91104 | 30372 ft | 565 kts | 99° |
| 2026-05-06 21:02 | 34.71254 | -104.86330 | 30600 ft | 568 kts | 99° |
| 2026-05-06 21:02 | 34.71056 | -104.81523 | 30885 ft | 570 kts | 99° |
| 2026-05-06 21:02 | 34.70858 | -104.76711 | 31217 ft | 570 kts | 99° |
| 2026-05-06 21:03 | 34.70659 | -104.71892 | 31559 ft | 570 kts | 99° |
| 2026-05-06 21:03 | 34.70461 | -104.67139 | 31905 ft | 570 kts | 100° |
| 2026-05-06 21:03 | 34.70244 | -104.62332 | 32247 ft | 569 kts | 101° |
| 2026-05-06 21:03 | 34.69914 | -104.57552 | 32579 ft | 567 kts | 104° |
| 2026-05-06 21:04 | 34.69447 | -104.52811 | 32927 ft | 564 kts | 106° |
| 2026-05-06 21:04 | 34.68878 | -104.48106 | 33249 ft | 562 kts | 107° |
| 2026-05-06 21:04 | 34.68263 | -104.43423 | 33603 ft | 562 kts | 108° |
| 2026-05-06 21:04 | 34.67650 | -104.38738 | 33937 ft | 562 kts | 108° |
| 2026-05-06 21:05 | 34.67069 | -104.34040 | 34236 ft | 563 kts | 107° |
| 2026-05-06 21:05 | 34.66528 | -104.29329 | 34572 ft | 563 kts | 106° |
| 2026-05-06 21:05 | 34.66017 | -104.24611 | 34769 ft | 563 kts | 105° |
| 2026-05-06 21:06 | 34.65018 | -104.15193 | 34818 ft | 561 kts | 106° |
| 2026-05-06 21:06 | 34.63976 | -104.05804 | 34825 ft | 560 kts | 107° |
| 2026-05-06 21:07 | 34.62900 | -103.96444 | 34814 ft | 559 kts | 107° |
| 2026-05-06 21:07 | 34.61829 | -103.87146 | 34830 ft | 559 kts | 107° |
| 2026-05-06 21:08 | 34.60747 | -103.77807 | 34843 ft | 559 kts | 107° |
| 2026-05-06 21:08 | 34.59663 | -103.68463 | 34840 ft | 559 kts | 107° |
| 2026-05-06 21:09 | 34.58580 | -103.59126 | 34855 ft | 559 kts | 107° |
| 2026-05-06 21:09 | 34.57481 | -103.49801 | 34844 ft | 558 kts | 107° |
| 2026-05-06 21:10 | 34.56368 | -103.40474 | 34855 ft | 558 kts | 108° |
| 2026-05-06 21:10 | 34.55250 | -103.31141 | 34869 ft | 558 kts | 108° |
| 2026-05-06 21:11 | 34.54136 | -103.21830 | 34870 ft | 558 kts | 108° |
| 2026-05-06 21:11 | 34.53016 | -103.12509 | 34865 ft | 557 kts | 108° |
| 2026-05-06 21:12 | 34.51888 | -103.03206 | 34867 ft | 558 kts | 108° |
| 2026-05-06 21:12 | 34.50753 | -102.93957 | 34872 ft | 558 kts | 108° |
| 2026-05-06 21:13 | 34.49589 | -102.84591 | 34883 ft | 558 kts | 108° |
| 2026-05-06 21:13 | 34.48529 | -102.75320 | 34902 ft | 561 kts | 106° |
| 2026-05-06 21:14 | 34.47618 | -102.65909 | 34884 ft | 563 kts | 105° |
| 2026-05-06 21:14 | 34.46710 | -102.56474 | 34898 ft | 563 kts | 105° |
| 2026-05-06 21:15 | 34.45734 | -102.47050 | 34922 ft | 563 kts | 106° |
| 2026-05-06 21:15 | 34.44722 | -102.37625 | 34919 ft | 563 kts | 106° |
| 2026-05-06 21:16 | 34.43720 | -102.28271 | 34972 ft | 564 kts | 106° |
| 2026-05-06 21:16 | 34.42722 | -102.18866 | 34991 ft | 563 kts | 106° |
| 2026-05-06 21:17 | 34.41716 | -102.09474 | 34991 ft | 562 kts | 106° |
| 2026-05-06 21:17 | 34.40691 | -102.00088 | 34975 ft | 561 kts | 106° |
| 2026-05-06 21:18 | 34.39671 | -101.90747 | 35005 ft | 559 kts | 106° |
| 2026-05-06 21:18 | 34.38648 | -101.81419 | 35039 ft | 559 kts | 106° |
| 2026-05-06 21:19 | 34.37619 | -101.72098 | 35052 ft | 558 kts | 106° |
| 2026-05-06 21:19 | 34.36582 | -101.62797 | 35050 ft | 558 kts | 107° |
| 2026-05-06 21:20 | 34.35542 | -101.53561 | 35037 ft | 558 kts | 107° |
| 2026-05-06 21:20 | 34.34487 | -101.44258 | 35038 ft | 558 kts | 107° |
| 2026-05-06 21:21 | 34.33431 | -101.34941 | 35036 ft | 559 kts | 107° |
| 2026-05-06 21:21 | 34.32366 | -101.25632 | 35037 ft | 559 kts | 107° |
| 2026-05-06 21:22 | 34.31286 | -101.16313 | 35031 ft | 559 kts | 107° |
| 2026-05-06 21:22 | 34.30205 | -101.07001 | 35031 ft | 560 kts | 107° |
| 2026-05-06 21:23 | 34.29119 | -100.97674 | 35037 ft | 560 kts | 107° |
| 2026-05-06 21:23 | 34.28022 | -100.88342 | 35038 ft | 560 kts | 107° |
| 2026-05-06 21:24 | 34.26921 | -100.79082 | 35035 ft | 560 kts | 107° |
| 2026-05-06 21:24 | 34.25803 | -100.69772 | 35031 ft | 559 kts | 107° |
| 2026-05-06 21:25 | 34.24681 | -100.60451 | 35053 ft | 560 kts | 107° |
| 2026-05-06 21:25 | 34.23558 | -100.51132 | 35057 ft | 560 kts | 107° |
| 2026-05-06 21:26 | 34.22432 | -100.41813 | 35052 ft | 560 kts | 107° |
| 2026-05-06 21:26 | 34.21293 | -100.32512 | 35043 ft | 560 kts | 107° |
| 2026-05-06 21:27 | 34.19784 | -100.23384 | 35045 ft | 544 kts | 119° |
| 2026-05-06 21:27 | 34.17229 | -100.14870 | 35023 ft | 538 kts | 122° |
| 2026-05-06 21:28 | 34.14660 | -100.06379 | 35025 ft | 539 kts | 122° |
| 2026-05-06 21:28 | 34.12112 | -99.97930 | 35016 ft | 539 kts | 122° |
| 2026-05-06 21:29 | 34.09544 | -99.89434 | 35016 ft | 539 kts | 122° |
| 2026-05-06 21:29 | 34.06968 | -99.80952 | 35001 ft | 537 kts | 122° |
| 2026-05-06 21:30 | 34.04381 | -99.72476 | 35028 ft | 537 kts | 122° |
| 2026-05-06 21:30 | 34.01787 | -99.64026 | 35025 ft | 536 kts | 122° |
| 2026-05-06 21:31 | 33.99216 | -99.55655 | 35028 ft | 536 kts | 122° |
| 2026-05-06 21:31 | 33.96624 | -99.47249 | 35016 ft | 535 kts | 122° |
| 2026-05-06 21:32 | 33.94021 | -99.38860 | 35000 ft | 534 kts | 122° |
| 2026-05-06 21:32 | 33.90093 | -99.26285 | 34997 ft | 534 kts | 122° |
| 2026-05-06 21:33 | 33.87920 | -99.19326 | 34993 ft | 534 kts | 122° |
| 2026-05-06 21:33 | 33.85306 | -99.10970 | 34978 ft | 533 kts | 122° |
| 2026-05-06 21:34 | 33.82693 | -99.02657 | 34987 ft | 532 kts | 122° |
| 2026-05-06 21:34 | 33.80069 | -98.94330 | 35001 ft | 532 kts | 122° |
| 2026-05-06 21:35 | 33.77442 | -98.86017 | 35012 ft | 531 kts | 122° |
| 2026-05-06 21:35 | 33.74805 | -98.77723 | 35020 ft | 531 kts | 123° |
| 2026-05-06 21:36 | 33.72173 | -98.69427 | 35015 ft | 531 kts | 122° |
| 2026-05-06 21:36 | 33.69565 | -98.61178 | 35013 ft | 531 kts | 122° |
| 2026-05-06 21:37 | 33.66928 | -98.52869 | 34258 ft | 537 kts | 122° |
| 2026-05-06 21:37 | 33.65577 | -98.48658 | 33210 ft | 545 kts | 122° |
| 2026-05-06 21:37 | 33.64219 | -98.44423 | 32247 ft | 545 kts | 122° |
| 2026-05-06 21:38 | 33.62858 | -98.40167 | 31198 ft | 547 kts | 121° |
| 2026-05-06 21:38 | 33.61515 | -98.35930 | 30242 ft | 540 kts | 121° |
| 2026-05-06 21:38 | 33.60196 | -98.31760 | 29326 ft | 530 kts | 121° |
| 2026-05-06 21:38 | 33.58895 | -98.27658 | 28378 ft | 521 kts | 121° |
| 2026-05-06 21:39 | 33.57600 | -98.23609 | 26914 ft | 521 kts | 120° |
| 2026-05-06 21:39 | 33.56288 | -98.19560 | 25820 ft | 517 kts | 120° |
| 2026-05-06 21:39 | 33.55023 | -98.15624 | 25384 ft | 496 kts | 120° |
| 2026-05-06 21:39 | 33.53804 | -98.11818 | 24690 ft | 484 kts | 120° |
| 2026-05-06 21:40 | 33.52608 | -98.08091 | 24041 ft | 474 kts | 120° |
| 2026-05-06 21:40 | 33.51424 | -98.04427 | 23428 ft | 470 kts | 119° |
| 2026-05-06 21:40 | 33.50234 | -98.00781 | 22788 ft | 467 kts | 119° |
| 2026-05-06 21:40 | 33.49071 | -97.97224 | 22231 ft | 463 kts | 119° |
| 2026-05-06 21:41 | 33.47901 | -97.93638 | 21668 ft | 459 kts | 119° |
| 2026-05-06 21:41 | 33.46746 | -97.90086 | 21123 ft | 456 kts | 119° |
| 2026-05-06 21:41 | 33.45606 | -97.86554 | 20599 ft | 453 kts | 119° |
| 2026-05-06 21:41 | 33.44478 | -97.83046 | 20078 ft | 450 kts | 118° |
| 2026-05-06 21:42 | 33.43358 | -97.79559 | 19541 ft | 447 kts | 118° |
| 2026-05-06 21:42 | 33.42253 | -97.76114 | 19108 ft | 441 kts | 119° |
| 2026-05-06 21:42 | 33.41149 | -97.72685 | 18629 ft | 438 kts | 119° |
| 2026-05-06 21:42 | 33.40053 | -97.69290 | 18012 ft | 437 kts | 119° |
| 2026-05-06 21:43 | 33.38890 | -97.66018 | 17806 ft | 417 kts | 126° |
| 2026-05-06 21:43 | 33.37373 | -97.63166 | 17417 ft | 397 kts | 137° |
| 2026-05-06 21:43 | 33.35552 | -97.60774 | 16962 ft | 383 kts | 145° |
| 2026-05-06 21:43 | 33.33663 | -97.58566 | 16638 ft | 374 kts | 145° |
| 2026-05-06 21:44 | 33.31822 | -97.56414 | 16248 ft | 367 kts | 145° |
| 2026-05-06 21:44 | 33.30005 | -97.54290 | 15781 ft | 364 kts | 145° |
| 2026-05-06 21:44 | 33.28206 | -97.52186 | 15305 ft | 361 kts | 144° |
| 2026-05-06 21:44 | 33.26438 | -97.50119 | 14840 ft | 358 kts | 144° |
| 2026-05-06 21:45 | 33.24664 | -97.48045 | 14388 ft | 355 kts | 143° |
| 2026-05-06 21:45 | 33.22910 | -97.45988 | 13816 ft | 352 kts | 143° |
| 2026-05-06 21:45 | 33.21179 | -97.43959 | 13307 ft | 346 kts | 142° |
| 2026-05-06 21:45 | 33.19470 | -97.41960 | 12873 ft | 343 kts | 142° |
| 2026-05-06 21:46 | 33.17768 | -97.39969 | 12455 ft | 340 kts | 142° |
| 2026-05-06 21:46 | 33.16110 | -97.38026 | 12311 ft | 328 kts | 142° |
| 2026-05-06 21:46 | 33.14511 | -97.36145 | 12179 ft | 317 kts | 142° |
| 2026-05-06 21:46 | 33.12968 | -97.34332 | 12041 ft | 307 kts | 142° |
| 2026-05-06 21:47 | 33.11462 | -97.32573 | 12022 ft | 301 kts | 143° |
| 2026-05-06 21:47 | 33.09969 | -97.30833 | 12026 ft | 301 kts | 143° |
| 2026-05-06 21:47 | 33.08469 | -97.29090 | 12024 ft | 300 kts | 143° |
| 2026-05-06 21:47 | 33.06972 | -97.27350 | 12024 ft | 300 kts | 143° |
| 2026-05-06 21:48 | 33.05474 | -97.25612 | 12024 ft | 300 kts | 143° |
| 2026-05-06 21:48 | 33.03998 | -97.23897 | 11837 ft | 298 kts | 143° |
| 2026-05-06 21:48 | 33.02514 | -97.22174 | 11512 ft | 297 kts | 142° |
| 2026-05-06 21:48 | 33.01040 | -97.20459 | 11217 ft | 295 kts | 142° |
| 2026-05-06 21:49 | 32.99592 | -97.18784 | 11094 ft | 285 kts | 144° |
| 2026-05-06 21:49 | 32.97993 | -97.17536 | 10975 ft | 267 kts | 164° |
| 2026-05-06 21:49 | 32.96236 | -97.16950 | 10487 ft | 264 kts | 180° |
| 2026-05-06 21:49 | 32.94371 | -97.16856 | 9861 ft | 274 kts | 184° |
| 2026-05-06 21:50 | 32.92456 | -97.16772 | 9415 ft | 277 kts | 182° |
| 2026-05-06 21:50 | 32.90529 | -97.16671 | 9039 ft | 278 kts | 182° |
| 2026-05-06 21:50 | 32.88607 | -97.16563 | 8590 ft | 276 kts | 182° |
| 2026-05-06 21:50 | 32.86684 | -97.16457 | 8084 ft | 276 kts | 182° |
| 2026-05-06 21:51 | 32.84766 | -97.16349 | 7594 ft | 276 kts | 182° |
| 2026-05-06 21:51 | 32.82847 | -97.16244 | 7108 ft | 276 kts | 182° |
| 2026-05-06 21:51 | 32.80926 | -97.16139 | 6618 ft | 276 kts | 182° |
| 2026-05-06 21:51 | 32.79011 | -97.16051 | 6112 ft | 274 kts | 183° |
| 2026-05-06 21:52 | 32.77107 | -97.16027 | 5605 ft | 272 kts | 184° |
| 2026-05-06 21:52 | 32.75216 | -97.16032 | 5087 ft | 272 kts | 184° |
| 2026-05-06 21:52 | 32.73332 | -97.16049 | 4590 ft | 271 kts | 183° |
| 2026-05-06 21:52 | 32.71450 | -97.16065 | 4116 ft | 268 kts | 182° |
| 2026-05-06 21:53 | 32.69637 | -97.16077 | 3989 ft | 253 kts | 182° |
| 2026-05-06 21:53 | 32.67926 | -97.16036 | 3859 ft | 239 kts | 173° |
| 2026-05-06 21:53 | 32.66492 | -97.15266 | 3742 ft | 227 kts | 138° |
| 2026-05-06 21:53 | 32.65689 | -97.13759 | 3608 ft | 212 kts | 103° |
| 2026-05-06 21:54 | 32.65567 | -97.12064 | 3351 ft | 205 kts | 84° |
| 2026-05-06 21:54 | 32.65637 | -97.10394 | 3115 ft | 200 kts | 82° |
| 2026-05-06 21:54 | 32.65959 | -97.08863 | 3032 ft | 185 kts | 58° |
| 2026-05-06 21:54 | 32.66615 | -97.07615 | 3014 ft | 174 kts | 49° |
| 2026-05-06 21:55 | 32.67504 | -97.06685 | 3012 ft | 169 kts | 33° |
| 2026-05-06 21:55 | 32.68460 | -97.05900 | 3012 ft | 167 kts | 25° |
| 2026-05-06 21:55 | 32.69576 | -97.05574 | 3017 ft | 167 kts | 2° |
| 2026-05-06 21:55 | 32.70741 | -97.05569 | 3027 ft | 168 kts | 1° |
| 2026-05-06 21:56 | 32.71899 | -97.05565 | 3018 ft | 166 kts | 0° |
| 2026-05-06 21:56 | 32.73058 | -97.05559 | 3027 ft | 166 kts | 1° |
| 2026-05-06 21:56 | 32.74224 | -97.05554 | 3030 ft | 167 kts | 1° |
| 2026-05-06 21:56 | 32.75380 | -97.05548 | 2989 ft | 162 kts | 1° |
| 2026-05-06 21:57 | 32.76460 | -97.05543 | 2846 ft | 149 kts | 1° |
| 2026-05-06 21:57 | 32.77480 | -97.05538 | 2677 ft | 142 kts | 1° |
| 2026-05-06 21:57 | 32.78432 | -97.05532 | 2509 ft | 135 kts | 1° |
| 2026-05-06 21:57 | 32.79359 | -97.05527 | 2329 ft | 132 kts | 1° |
| 2026-05-06 21:58 | 32.80271 | -97.05522 | 2135 ft | 131 kts | 2° |
| 2026-05-06 21:58 | 32.81171 | -97.05517 | 1955 ft | 128 kts | 1° |
| 2026-05-06 21:58 | 32.82065 | -97.05498 | 1797 ft | 128 kts | 1° |
| 2026-05-06 21:58 | 32.82955 | -97.05526 | 1661 ft | 129 kts | 360° |
| 2026-05-06 21:59 | 32.83865 | -97.05525 | 1515 ft | 133 kts | 1° |
| 2026-05-06 21:59 | 32.84780 | -97.05508 | 1295 ft | 130 kts | 1° |
| 2026-05-06 21:59 | 32.85697 | -97.05488 | 1090 ft | 133 kts | 360° |
| 2026-05-06 21:59 | 32.86623 | -97.05490 | 907 ft | 134 kts | 0° |
| 2026-05-06 22:00 | 32.87559 | -97.05485 | 721 ft | 135 kts | 1° |
| 2026-05-06 22:00 | 32.88473 | -97.05481 | 623 ft | 122 kts | 360° |
| 2026-05-06 22:00 | 32.89208 | -97.05475 | 618 ft | 86 kts | 0° |
| 2026-05-06 22:00 | 32.89700 | -97.05472 | 619 ft | 65 kts | 0° |
| 2026-05-06 22:01 | 32.90008 | -97.05359 | 616 ft | 42 kts | 34° |
| 2026-05-06 22:01 | 32.90120 | -97.05136 | 616 ft | 34 kts | 90° |
| 2026-05-06 22:01 | 32.90118 | -97.04842 | 616 ft | 37 kts | 90° |
| 2026-05-06 22:01 | 32.90085 | -97.04527 | 616 ft | 40 kts | 88° |
| 2026-05-06 22:02 | 32.90088 | -97.04278 | 625 ft | 20 kts | 90° |
| 2026-05-06 22:02 | 32.90087 | -97.04234 | 618 ft | 0 kts | 93° |